Brockton, Massachusetts
Current Conditions -  °F | °C
As of 8:09 PM on Wednesday 22 Oct 2014 (Local Time) from KOWD Reporting Station
Light Rain Light Rain  
Wind Chill: 53°   Ceiling: 700
Heat Index: 53°   Visibility: 3mi
Dew Point: 50°   Wind: 26mph
Humidity: 89%   Direction: 30°NNE
Pressure: 29.83"   Gusts: 41mph
Location:  42.08°N, 71.02°W
Report Text: KOWD 230009Z 03023G36KT 3SM -RA BR OVC007 12/10 A2983 RMK AO2 PK WND 04036/0006 CIG 006V010 P0002 T01170100
Loading
Personal Weather Stations






























Interactive Weather Map New forecast layout! Learn more

10-Day Weather Forecast

Advertisements
Track Severe Weather on mobile